Time;durP1;ratioP1;P1;durP2;ratioP2;P2;SDS_P1;SDS_P2;PMS_P1;PMS_P2;Temp;Humidity;BMP_temperature;BMP_pressure;BME280_temperature;BME280_humidity;BME280_pressure;Samples;Min_cycle;Max_cycle;Signal;HPM_P1;HPM_P2
2021/06/03 00:01:01;;;;;;;11.80;9.07;;;18.70;75.70;;;;;;5091597;28;20067;-57
2021/06/03 00:03:27;;;;;;;17.88;9.85;;;18.60;76.30;;;;;;5092134;28;20047;-57
2021/06/03 00:05:56;;;;;;;13.05;9.38;;;18.60;76.10;;;;;;5091919;28;20040;-57
2021/06/03 00:08:24;;;;;;;16.23;10.80;;;18.60;76.50;;;;;;5090896;28;20043;-57
2021/06/03 00:11:03;;;;;;;16.60;10.80;;;18.50;76.40;;;;;;5057727;28;20059;-55
2021/06/03 00:13:37;;;;;;;13.70;10.35;;;18.50;76.30;;;;;;5090571;28;20044;-57
2021/06/03 00:16:15;;;;;;;13.45;10.35;;;18.50;76.70;;;;;;5083056;28;20542;-54
2021/06/03 00:18:42;;;;;;;14.90;11.25;;;18.50;76.40;;;;;;5076587;28;20062;-57
2021/06/03 00:21:08;;;;;;;12.32;10.23;;;18.50;76.20;;;;;;5092834;28;20101;-58
2021/06/03 00:23:34;;;;;;;14.15;9.95;;;18.50;76.90;;;;;;5073105;28;20044;-57
2021/06/03 00:25:59;;;;;;;11.30;9.57;;;18.50;76.40;;;;;;5089079;28;20081;-57
2021/06/03 00:28:25;;;;;;;14.55;10.40;;;18.50;76.90;;;;;;5091872;28;20043;-56
2021/06/03 00:30:51;;;;;;;15.30;11.10;;;18.40;77.10;;;;;;5093063;28;20075;-58
2021/06/03 00:33:18;;;;;;;17.27;9.93;;;18.40;77.10;;;;;;5077135;28;20040;-57
2021/06/03 00:35:44;;;;;;;15.63;10.77;;;18.40;76.80;;;;;;5086348;28;20044;-57
2021/06/03 00:38:10;;;;;;;14.10;10.90;;;18.40;77.20;;;;;;5082829;28;20113;-58
2021/06/03 00:40:37;;;;;;;14.02;10.15;;;18.30;76.90;;;;;;5085268;28;20044;-55
2021/06/03 00:43:04;;;;;;;15.15;9.80;;;18.30;76.80;;;;;;5087436;28;20062;-56
2021/06/03 00:45:38;;;;;;;14.63;10.68;;;18.30;77.00;;;;;;5083038;28;20048;-56
2021/06/03 00:48:06;;;;;;;13.07;10.32;;;18.20;77.40;;;;;;5085155;28;20037;-54
2021/06/03 00:50:45;;;;;;;12.45;9.90;;;18.20;78.00;;;;;;5083001;28;20040;-57
2021/06/03 00:53:14;;;;;;;12.77;10.10;;;18.20;76.90;;;;;;5087325;28;20553;-56
2021/06/03 00:55:43;;;;;;;12.90;10.45;;;18.20;76.10;;;;;;5092234;28;20089;-56
2021/06/03 00:58:09;;;;;;;14.02;10.20;;;18.30;74.70;;;;;;5085873;28;20574;-57
2021/06/03 01:00:35;;;;;;;11.65;9.98;;;18.30;74.60;;;;;;5084370;28;20052;-55
2021/06/03 01:03:02;;;;;;;13.35;10.10;;;18.30;74.50;;;;;;5082466;28;20063;-54
2021/06/03 01:05:35;;;;;;;13.45;10.07;;;18.40;73.20;;;;;;5073535;28;20067;-56
2021/06/03 01:08:04;;;;;;;13.32;9.60;;;18.50;73.00;;;;;;5089644;28;20040;-56
2021/06/03 01:10:34;;;;;;;13.38;9.20;;;18.50;72.10;;;;;;5090534;28;20063;-56
2021/06/03 01:13:34;;;;;;;12.93;9.15;;;18.60;71.60;;;;;;5067926;28;20113;-53
2021/06/03 01:16:03;;;;;;;14.50;9.38;;;18.60;71.10;;;;;;5084986;28;20416;-55
2021/06/03 01:18:33;;;;;;;16.52;10.00;;;18.70;70.70;;;;;;5092084;28;20127;-56
2021/06/03 01:21:04;;;;;;;11.73;8.85;;;18.70;70.20;;;;;;5072622;28;20040;-53
2021/06/03 01:23:39;;;;;;;15.63;9.83;;;18.70;70.00;;;;;;5088983;28;20044;-56
2021/06/03 01:26:05;;;;;;;11.70;9.55;;;18.80;69.00;;;;;;5090288;28;20074;-54
2021/06/03 01:28:33;;;;;;;13.88;9.40;;;18.80;69.30;;;;;;5091943;28;20044;-56
2021/06/03 01:30:59;;;;;;;10.95;9.20;;;18.70;69.40;;;;;;5070857;28;20036;-54
2021/06/03 01:33:28;;;;;;;13.70;9.05;;;18.70;69.30;;;;;;5045942;28;20094;-56
2021/06/03 01:36:00;;;;;;;13.23;9.68;;;18.70;70.40;;;;;;5081957;28;20032;-56
2021/06/03 01:38:33;;;;;;;13.95;9.73;;;18.60;71.00;;;;;;5083695;28;20758;-55
2021/06/03 01:41:01;;;;;;;13.38;9.43;;;18.60;70.00;;;;;;5091608;28;20074;-56
2021/06/03 01:43:29;;;;;;;11.98;9.13;;;18.60;69.80;;;;;;5082419;28;20044;-53
2021/06/03 01:45:57;;;;;;;10.85;9.40;;;18.60;69.00;;;;;;5083540;28;20052;-54
2021/06/03 01:48:23;;;;;;;11.30;9.52;;;18.60;69.90;;;;;;5081685;28;20089;-53
2021/06/03 01:50:52;;;;;;;12.38;9.57;;;18.60;70.00;;;;;;5090698;28;20044;-56
2021/06/03 01:53:21;;;;;;;13.25;10.02;;;18.60;70.00;;;;;;5086869;28;20124;-54
2021/06/03 01:55:47;;;;;;;17.20;10.27;;;18.50;70.00;;;;;;5065008;28;20543;-55
2021/06/03 01:58:13;;;;;;;15.00;10.50;;;18.50;69.60;;;;;;5090490;28;20040;-55
2021/06/03 02:00:41;;;;;;;12.40;9.50;;;18.60;69.00;;;;;;5073182;28;20062;-54
2021/06/03 02:03:07;;;;;;;13.65;9.93;;;18.60;68.90;;;;;;5063965;28;20036;-55
2021/06/03 02:05:33;;;;;;;12.57;10.40;;;18.60;68.90;;;;;;5080837;28;20106;-54
2021/06/03 02:08:00;;;;;;;13.15;9.98;;;18.60;68.90;;;;;;5036369;28;20071;-57
2021/06/03 02:10:26;;;;;;;20.52;11.10;;;18.60;69.10;;;;;;5090535;28;20052;-57
2021/06/03 02:13:15;;;;;;;16.30;11.43;;;18.60;69.10;;;;;;5090825;28;20093;-57
2021/06/03 02:15:51;;;;;;;13.25;10.18;;;18.60;69.30;;;;;;5081519;28;20040;-57
2021/06/03 02:18:20;;;;;;;16.00;10.27;;;18.50;69.60;;;;;;5055118;28;20541;-57
2021/06/03 02:20:47;;;;;;;12.95;9.85;;;18.50;69.70;;;;;;5061337;28;20068;-57
2021/06/03 02:23:16;;;;;;;12.23;10.05;;;18.40;69.90;;;;;;5088631;28;20056;-57
2021/06/03 02:25:43;;;;;;;14.15;10.10;;;18.30;70.10;;;;;;5081860;28;20036;-58
2021/06/03 02:28:10;;;;;;;14.35;10.15;;;18.30;70.30;;;;;;5081671;28;20040;-57
2021/06/03 02:30:36;;;;;;;16.88;9.75;;;18.30;70.00;;;;;;5089375;28;20466;-58
2021/06/03 02:33:03;;;;;;;12.07;9.63;;;18.30;70.20;;;;;;5078485;28;20044;-57
2021/06/03 02:35:29;;;;;;;13.80;10.60;;;18.20;70.20;;;;;;5086568;28;20560;-57
2021/06/03 02:37:55;;;;;;;13.88;9.80;;;18.20;70.00;;;;;;5070791;28;20044;-58
2021/06/03 02:40:27;;;;;;;11.20;9.30;;;18.20;69.90;;;;;;5090948;28;20040;-57
2021/06/03 02:42:54;;;;;;;13.05;10.07;;;18.20;70.20;;;;;;5069706;28;20504;-56
2021/06/03 02:45:24;;;;;;;13.80;9.82;;;18.20;70.20;;;;;;5085353;28;20044;-57
2021/06/03 02:47:51;;;;;;;12.25;9.70;;;18.20;69.80;;;;;;5078083;28;20047;-56
2021/06/03 02:50:19;;;;;;;11.77;10.00;;;18.20;69.40;;;;;;5087467;28;20036;-57
2021/06/03 02:52:48;;;;;;;11.25;8.93;;;18.10;69.40;;;;;;5089009;28;20039;-57
2021/06/03 02:55:17;;;;;;;13.18;9.60;;;18.10;69.60;;;;;;5087935;28;20074;-58
2021/06/03 02:57:43;;;;;;;15.23;9.82;;;18.10;69.50;;;;;;5080201;28;20504;-54
2021/06/03 03:00:12;;;;;;;12.85;9.77;;;18.10;69.60;;;;;;5085735;28;20058;-55
2021/06/03 03:02:37;;;;;;;12.90;9.57;;;18.10;69.50;;;;;;5094205;28;20040;-54
2021/06/03 03:05:05;;;;;;;16.33;9.02;;;18.00;69.70;;;;;;5090767;28;20441;-53
2021/06/03 03:07:34;;;;;;;11.93;8.80;;;18.00;69.70;;;;;;5065507;28;20450;-55
2021/06/03 03:10:01;;;;;;;11.10;9.13;;;18.00;69.80;;;;;;5078668;28;20070;-54
2021/06/03 03:12:27;;;;;;;12.48;9.15;;;18.00;69.90;;;;;;5093320;28;20047;-56
2021/06/03 03:14:53;;;;;;;12.15;8.60;;;18.00;70.00;;;;;;5093365;28;20040;-56
2021/06/03 03:17:18;;;;;;;11.02;9.15;;;17.90;70.20;;;;;;5091380;28;20056;-53
2021/06/03 03:19:44;;;;;;;10.32;8.45;;;17.90;70.20;;;;;;5091658;28;20055;-56
2021/06/03 03:22:10;;;;;;;11.73;8.65;;;17.90;70.30;;;;;;5087260;28;20093;-53
2021/06/03 03:24:35;;;;;;;15.05;8.77;;;17.90;70.40;;;;;;5093446;28;20123;-55
2021/06/03 03:27:01;;;;;;;11.15;8.65;;;17.90;70.50;;;;;;5093828;28;20047;-54
2021/06/03 03:29:27;;;;;;;11.13;8.43;;;17.90;70.50;;;;;;5066588;28;20056;-53
2021/06/03 03:31:54;;;;;;;11.65;8.10;;;17.90;70.40;;;;;;5094113;28;20488;-54
2021/06/03 03:34:20;;;;;;;11.00;8.38;;;17.90;70.50;;;;;;5041156;28;20040;-56
2021/06/03 03:36:46;;;;;;;9.98;8.63;;;17.90;70.70;;;;;;5092836;28;20569;-55
2021/06/03 03:39:12;;;;;;;10.73;9.07;;;17.90;70.80;;;;;;5072063;28;20059;-55
2021/06/03 03:41:38;;;;;;;11.00;8.35;;;18.00;71.00;;;;;;5087769;28;20048;-52
2021/06/03 03:44:07;;;;;;;12.25;8.10;;;17.90;70.80;;;;;;5075683;28;20050;-54
2021/06/03 03:46:34;;;;;;;13.70;8.52;;;18.00;71.00;;;;;;5093078;28;20048;-54
2021/06/03 03:49:01;;;;;;;10.32;8.60;;;18.00;71.10;;;;;;5091921;28;20614;-54
2021/06/03 03:51:26;;;;;;;11.00;8.18;;;17.90;71.10;;;;;;5056262;28;20493;-54
2021/06/03 03:53:52;;;;;;;10.98;8.38;;;18.00;71.30;;;;;;5088670;28;20048;-54
2021/06/03 03:56:18;;;;;;;10.73;7.97;;;17.90;71.30;;;;;;5093409;28;20032;-54
2021/06/03 03:58:43;;;;;;;16.95;8.82;;;18.00;71.40;;;;;;5092765;28;20558;-55
2021/06/03 04:01:10;;;;;;;12.55;8.70;;;18.00;71.30;;;;;;5093241;28;20040;-56
2021/06/03 04:03:36;;;;;;;9.30;8.00;;;18.00;71.20;;;;;;5092668;28;20097;-54
2021/06/03 04:06:02;;;;;;;12.05;8.23;;;18.00;71.20;;;;;;5092108;28;20040;-55
2021/06/03 04:08:28;;;;;;;11.63;7.75;;;18.00;71.30;;;;;;5092456;28;20500;-54
2021/06/03 04:10:54;;;;;;;9.18;7.68;;;18.00;71.20;;;;;;5093084;28;20101;-57
2021/06/03 04:13:20;;;;;;;10.40;7.25;;;18.00;71.20;;;;;;5092069;28;20061;-54
2021/06/03 04:15:46;;;;;;;10.73;7.63;;;18.00;71.30;;;;;;5093367;28;20073;-54
2021/06/03 04:18:12;;;;;;;10.65;7.65;;;18.00;71.30;;;;;;5092312;28;20772;-54
2021/06/03 04:20:40;;;;;;;10.05;7.63;;;18.00;71.30;;;;;;5092696;28;20600;-53
2021/06/03 04:23:08;;;;;;;10.88;7.43;;;18.10;71.40;;;;;;5075112;28;20363;-54
2021/06/03 04:25:33;;;;;;;10.20;7.25;;;18.10;71.40;;;;;;5092556;28;20752;-56
2021/06/03 04:28:00;;;;;;;10.52;7.70;;;18.10;71.40;;;;;;5089978;28;20040;-55
2021/06/03 04:30:30;;;;;;;9.43;7.70;;;18.10;71.40;;;;;;5093089;28;20044;-54
2021/06/03 04:32:55;;;;;;;9.65;7.35;;;18.10;71.50;;;;;;5049369;28;20041;-54
2021/06/03 04:35:23;;;;;;;9.95;7.30;;;18.10;71.70;;;;;;5088445;28;20097;-57
2021/06/03 04:37:50;;;;;;;10.95;7.90;;;18.10;71.90;;;;;;5083806;28;20064;-54
2021/06/03 04:40:18;;;;;;;9.82;7.03;;;18.10;72.00;;;;;;5091768;28;20040;-54
2021/06/03 04:42:45;;;;;;;11.07;7.40;;;18.10;72.00;;;;;;5092050;28;20031;-53
2021/06/03 04:45:13;;;;;;;11.18;7.68;;;18.20;72.10;;;;;;5091809;28;20489;-54
2021/06/03 04:47:42;;;;;;;11.98;7.40;;;18.20;72.30;;;;;;5091523;28;20044;-56
2021/06/03 04:50:11;;;;;;;10.55;7.40;;;18.20;72.50;;;;;;5092791;28;20075;-56
2021/06/03 04:52:37;;;;;;;9.32;7.20;;;18.20;72.40;;;;;;5092237;28;20494;-56
2021/06/03 04:55:08;;;;;;;16.15;7.80;;;18.20;72.70;;;;;;5092214;28;20119;-54
2021/06/03 04:57:37;;;;;;;10.55;7.30;;;18.20;72.80;;;;;;5092034;28;20050;-51
2021/06/03 05:00:16;;;;;;;8.27;6.87;;;18.20;72.60;;;;;;5073960;28;20040;-53
2021/06/03 05:02:42;;;;;;;9.20;7.00;;;18.30;72.60;;;;;;5092333;28;20036;-54
2021/06/03 05:05:09;;;;;;;10.88;7.80;;;18.30;72.60;;;;;;5091364;28;20488;-54
2021/06/03 05:07:38;;;;;;;9.48;7.38;;;18.30;72.70;;;;;;5084938;28;20036;-54
2021/06/03 05:10:05;;;;;;;10.10;7.70;;;18.30;72.70;;;;;;5074511;28;20048;-57
2021/06/03 05:12:33;;;;;;;10.55;6.90;;;18.40;72.80;;;;;;5074130;28;20046;-53
2021/06/03 05:14:59;;;;;;;9.57;7.20;;;18.40;72.70;;;;;;5090541;28;20498;-54
2021/06/03 05:17:24;;;;;;;8.98;7.25;;;18.40;72.70;;;;;;5090077;28;20044;-53
2021/06/03 05:19:50;;;;;;;10.65;7.72;;;18.40;72.70;;;;;;5092361;28;20047;-54
2021/06/03 05:22:16;;;;;;;10.07;7.80;;;18.50;73.00;;;;;;5081557;28;20032;-50
2021/06/03 05:24:43;;;;;;;10.00;7.50;;;18.50;73.20;;;;;;5069991;28;20044;-54
2021/06/03 05:27:09;;;;;;;11.27;8.02;;;18.50;73.20;;;;;;5087518;28;20040;-55
2021/06/03 05:29:36;;;;;;;10.10;7.40;;;18.50;73.40;;;;;;5089831;28;20128;-51
2021/06/03 05:32:02;;;;;;;10.68;7.82;;;18.60;73.50;;;;;;5074514;28;20060;-55
2021/06/03 05:34:28;;;;;;;12.18;8.52;;;18.60;73.60;;;;;;5084633;28;20044;-55
2021/06/03 05:36:54;;;;;;;9.80;8.00;;;18.60;73.70;;;;;;5071701;28;20053;-53
2021/06/03 05:39:20;;;;;;;10.90;7.82;;;18.60;74.00;;;;;;5090282;28;20156;-51
2021/06/03 05:41:45;;;;;;;9.85;7.47;;;18.60;74.00;;;;;;5085861;28;20275;-56
2021/06/03 05:44:13;;;;;;;13.52;8.15;;;18.70;74.10;;;;;;5084925;28;20044;-55
2021/06/03 05:46:39;;;;;;;11.68;8.13;;;18.70;74.30;;;;;;5089035;28;20044;-50
2021/06/03 05:49:06;;;;;;;10.10;7.85;;;18.70;74.30;;;;;;5089823;28;20040;-52
2021/06/03 05:51:33;;;;;;;12.05;8.43;;;18.80;74.20;;;;;;5070614;28;20052;-52
2021/06/03 05:54:00;;;;;;;10.73;8.80;;;18.70;74.00;;;;;;5082952;28;20499;-52
2021/06/03 05:56:26;;;;;;;13.35;8.77;;;18.80;74.10;;;;;;5091465;28;20383;-52
2021/06/03 05:58:56;;;;;;;9.35;7.47;;;18.90;74.10;;;;;;5086300;28;20039;-55
2021/06/03 06:01:24;;;;;;;10.57;7.75;;;18.80;74.10;;;;;;5083393;28;20052;-55
2021/06/03 06:04:13;;;;;;;10.32;8.65;;;18.90;74.20;;;;;;5073488;28;20045;-56
2021/06/03 06:06:41;;;;;;;15.10;9.10;;;18.90;74.60;;;;;;5084516;28;20044;-57
2021/06/03 06:09:08;;;;;;;12.23;8.68;;;18.90;74.00;;;;;;5076872;28;20040;-56
2021/06/03 06:11:44;;;;;;;10.43;8.25;;;18.90;74.10;;;;;;5086962;28;20480;-55
2021/06/03 06:14:11;;;;;;;14.95;9.02;;;18.90;74.40;;;;;;5073742;28;20036;-56
2021/06/03 06:16:38;;;;;;;13.52;8.55;;;18.90;74.50;;;;;;5082942;28;20052;-50
2021/06/03 06:19:08;;;;;;;11.48;8.80;;;19.00;75.10;;;;;;5066821;28;20119;-55
2021/06/03 06:21:52;;;;;;;14.77;8.98;;;19.00;74.90;;;;;;5071915;28;20056;-51
2021/06/03 06:24:18;;;;;;;11.65;9.23;;;19.00;74.70;;;;;;5090307;28;20040;-50
2021/06/03 06:26:45;;;;;;;10.25;9.18;;;19.10;74.70;;;;;;5090738;28;20493;-55
2021/06/03 06:29:11;;;;;;;10.55;8.90;;;19.10;74.70;;;;;;5071772;28;20082;-53
2021/06/03 06:31:43;;;;;;;10.02;8.88;;;19.10;74.70;;;;;;5085161;28;20044;-54
2021/06/03 06:34:09;;;;;;;11.57;8.98;;;19.10;75.60;;;;;;5080376;28;20036;-53
2021/06/03 06:36:35;;;;;;;10.45;8.57;;;19.20;74.80;;;;;;5084615;28;20404;-55
2021/06/03 06:39:04;;;;;;;11.82;8.90;;;19.20;74.80;;;;;;5035838;28;20043;-53
2021/06/03 06:41:31;;;;;;;12.15;8.93;;;19.30;74.60;;;;;;5083257;28;20063;-53
2021/06/03 06:44:00;;;;;;;11.20;8.80;;;19.40;74.60;;;;;;5075018;28;20048;-52
2021/06/03 06:46:26;;;;;;;11.70;8.82;;;19.40;74.70;;;;;;5056339;28;20053;-54
2021/06/03 06:48:52;;;;;;;10.15;8.60;;;19.50;75.10;;;;;;5081084;28;20052;-50
2021/06/03 06:51:17;;;;;;;10.82;8.52;;;19.60;74.80;;;;;;5090761;28;20439;-51
2021/06/03 06:53:44;;;;;;;11.63;9.00;;;19.60;74.20;;;;;;5088773;28;20036;-50
2021/06/03 06:56:09;;;;;;;10.48;9.18;;;19.70;74.00;;;;;;5090501;28;20044;-56
2021/06/03 06:58:35;;;;;;;11.68;9.18;;;19.70;73.50;;;;;;5086550;28;20113;-55
2021/06/03 07:01:02;;;;;;;10.48;9.38;;;19.80;73.70;;;;;;5089865;28;20040;-54
2021/06/03 07:03:28;;;;;;;11.20;9.38;;;19.80;73.50;;;;;;5090068;28;20056;-53
2021/06/03 07:05:54;;;;;;;13.88;9.85;;;19.90;73.50;;;;;;5072513;28;20086;-53
2021/06/03 07:08:20;;;;;;;14.23;9.68;;;19.90;73.90;;;;;;5091245;28;20067;-56
2021/06/03 07:10:48;;;;;;;12.20;9.75;;;19.90;74.00;;;;;;5090472;28;20047;-56
2021/06/03 07:13:14;;;;;;;14.60;10.20;;;20.00;73.60;;;;;;5070186;28;20569;-56
2021/06/03 07:15:40;;;;;;;11.75;9.57;;;20.00;73.80;;;;;;5083296;28;20040;-55
2021/06/03 07:18:11;;;;;;;10.18;9.07;;;20.20;74.30;;;;;;5072121;28;20051;-56
2021/06/03 07:20:37;;;;;;;12.07;9.60;;;20.40;74.50;;;;;;5081916;28;20253;-50
2021/06/03 07:23:06;;;;;;;11.18;9.93;;;20.60;73.90;;;;;;5072616;28;20584;-51
2021/06/03 07:25:37;;;;;;;11.60;9.82;;;20.70;74.30;;;;;;5077054;28;20047;-52
2021/06/03 07:28:06;;;;;;;12.18;9.52;;;20.90;73.80;;;;;;5074652;28;20064;-51
2021/06/03 07:30:32;;;;;;;11.05;9.48;;;21.10;73.10;;;;;;5076497;28;20428;-54
2021/06/03 07:33:01;;;;;;;11.07;9.73;;;21.30;72.50;;;;;;5054870;28;20068;-53
2021/06/03 07:35:30;;;;;;;17.42;10.50;;;21.50;71.90;;;;;;5083795;28;20525;-50
2021/06/03 07:37:56;;;;;;;11.30;9.88;;;21.60;71.00;;;;;;5073613;28;20139;-53
2021/06/03 07:40:25;;;;;;;13.15;10.15;;;21.60;71.00;;;;;;5074639;28;20110;-50
2021/06/03 07:42:52;;;;;;;13.05;10.27;;;21.70;71.60;;;;;;5077180;28;20044;-50
2021/06/03 07:45:22;;;;;;;12.02;9.93;;;21.80;71.00;;;;;;5040669;28;20047;-53
2021/06/03 07:47:49;;;;;;;11.10;9.88;;;22.00;71.20;;;;;;5077564;28;20040;-53
2021/06/03 07:50:19;;;;;;;12.48;9.88;;;22.10;71.40;;;;;;5073941;28;20041;-56
2021/06/03 07:52:45;;;;;;;11.55;9.23;;;22.20;71.30;;;;;;5080153;28;20072;-53
2021/06/03 07:55:23;;;;;;;10.30;8.77;;;22.20;70.40;;;;;;5077724;28;20046;-54
2021/06/03 07:57:57;;;;;;;10.98;8.48;;;22.30;70.00;;;;;;5060456;28;20040;-53
2021/06/03 08:00:24;;;;;;;9.27;8.23;;;22.30;70.60;;;;;;5075790;28;20056;-55
2021/06/03 08:02:54;;;;;;;9.95;8.60;;;22.30;69.80;;;;;;5076692;28;20042;-57
2021/06/03 08:05:25;;;;;;;10.75;8.35;;;22.30;70.40;;;;;;5074418;28;20476;-53
2021/06/03 08:07:54;;;;;;;11.43;7.95;;;22.40;70.30;;;;;;5061731;28;20044;-55
2021/06/03 08:10:29;;;;;;;10.68;8.00;;;22.50;70.40;;;;;;5075882;28;20029;-56
2021/06/03 08:12:57;;;;;;;11.60;8.85;;;22.70;70.10;;;;;;5079560;28;20044;-53
2021/06/03 08:15:24;;;;;;;11.60;8.98;;;22.80;68.90;;;;;;5079871;28;20140;-54
2021/06/03 08:17:50;;;;;;;11.20;8.23;;;23.00;67.50;;;;;;5076419;28;20489;-54
2021/06/03 08:20:24;;;;;;;12.65;7.80;;;23.10;68.10;;;;;;5078467;28;20047;-57
2021/06/03 08:22:51;;;;;;;9.27;8.02;;;23.20;67.70;;;;;;5070688;28;20040;-56
2021/06/03 08:25:17;;;;;;;11.13;8.48;;;23.40;67.40;;;;;;5092721;28;20484;-56
2021/06/03 08:27:44;;;;;;;13.90;8.98;;;23.40;67.70;;;;;;5090411;28;20044;-55
2021/06/03 08:30:15;;;;;;;10.65;9.13;;;23.60;67.50;;;;;;5069005;28;20036;-57
2021/06/03 08:32:53;;;;;;;11.98;8.60;;;23.70;66.10;;;;;;5069609;28;20058;-56
2021/06/03 08:35:42;;;;;;;10.10;8.23;;;23.80;65.40;;;;;;5047999;28;20587;-53
2021/06/03 08:38:28;;;;;;;12.93;7.55;;;23.80;66.00;;;;;;5060700;28;20535;-56
2021/06/03 08:40:57;;;;;;;15.50;9.60;;;23.70;66.00;;;;;;5092540;28;20123;-57
2021/06/03 08:43:26;;;;;;;13.55;8.55;;;23.60;65.00;;;;;;5084750;28;20501;-57
2021/06/03 08:45:53;;;;;;;14.90;9.55;;;23.50;64.90;;;;;;5092550;28;20054;-57
2021/06/03 08:48:18;;;;;;;11.50;8.10;;;23.40;65.40;;;;;;5080779;28;20111;-57
2021/06/03 08:50:48;;;;;;;10.50;8.45;;;23.40;65.80;;;;;;5088871;28;20163;-56
2021/06/03 08:53:16;;;;;;;12.02;8.13;;;23.30;66.20;;;;;;5063223;28;20132;-57
2021/06/03 08:58:38;;;;;;;11.32;8.52;;;23.30;67.10;;;;;;5069963;28;20122;-56
2021/06/03 09:01:05;;;;;;;12.70;8.30;;;23.30;66.30;;;;;;5049722;28;20539;-57
2021/06/03 09:03:32;;;;;;;11.02;8.23;;;23.30;66.30;;;;;;5080827;28;20040;-56
2021/06/03 09:05:58;;;;;;;11.82;7.57;;;23.30;65.80;;;;;;5088686;28;20043;-56
2021/06/03 09:08:26;;;;;;;9.63;7.30;;;23.40;66.00;;;;;;5086807;28;20033;-55
2021/06/03 09:10:59;;;;;;;10.40;7.20;;;23.40;65.80;;;;;;5086621;28;20042;-56
2021/06/03 09:13:27;;;;;;;8.73;7.18;;;23.50;65.90;;;;;;5091253;28;20036;-56
2021/06/03 09:16:01;;;;;;;9.73;7.57;;;23.60;66.10;;;;;;5084364;28;20520;-56
2021/06/03 09:18:29;;;;;;;9.13;7.43;;;23.70;66.00;;;;;;5087289;28;20047;-56
2021/06/03 09:20:55;;;;;;;10.98;8.02;;;23.80;64.50;;;;;;5083940;28;20036;-56
2021/06/03 09:23:32;;;;;;;10.65;7.93;;;23.80;64.50;;;;;;5088571;28;20089;-56
2021/06/03 09:26:04;;;;;;;11.13;7.53;;;23.80;64.50;;;;;;5085995;28;20495;-56
2021/06/03 09:28:31;;;;;;;;;;;23.80;64.50;;;;;;5089680;28;20079;-56
2021/06/03 09:30:57;;;;;;;10.07;6.93;;;23.80;65.40;;;;;;5091690;28;19943;-56
2021/06/03 09:33:41;;;;;;;10.15;6.75;;;23.80;64.80;;;;;;5090248;28;20048;-56
2021/06/03 09:36:09;;;;;;;8.38;7.07;;;23.90;65.10;;;;;;5082648;28;20039;-56
2021/06/03 09:38:49;;;;;;;9.18;7.50;;;24.00;65.20;;;;;;5085954;28;20040;-56
2021/06/03 09:41:17;;;;;;;8.85;7.53;;;24.00;64.80;;;;;;5073118;28;20036;-56
2021/06/03 09:43:43;;;;;;;9.65;7.75;;;24.20;65.40;;;;;;5073124;28;20043;-56
2021/06/03 09:46:12;;;;;;;12.02;7.75;;;24.30;65.80;;;;;;5072641;28;20042;-56
2021/06/03 09:48:47;;;;;;;9.25;7.65;;;24.50;64.50;;;;;;5074253;28;20045;-57
2021/06/03 09:51:21;;;;;;;10.60;8.23;;;24.70;63.70;;;;;;5083184;28;20488;-56
2021/06/03 09:53:56;;;;;;;12.23;9.30;;;25.00;63.30;;;;;;5085640;28;20094;-55
2021/06/03 09:56:36;;;;;;;11.00;8.57;;;25.10;61.70;;;;;;5078677;28;20044;-56
2021/06/03 09:59:05;;;;;;;10.90;8.68;;;25.30;61.50;;;;;;5076977;28;20055;-57
2021/06/03 10:01:50;;;;;;;11.90;8.57;;;25.40;60.60;;;;;;5076724;28;20040;-53
2021/06/03 10:04:56;;;;;;;15.65;8.32;;;25.40;60.10;;;;;;5078664;28;20473;-54
2021/06/03 10:07:36;;;;;;;11.98;8.70;;;25.40;60.90;;;;;;4989953;28;20042;-54
2021/06/03 10:10:04;;;;;;;10.95;9.07;;;25.40;61.40;;;;;;5068382;28;20346;-55
2021/06/03 10:12:32;;;;;;;9.90;8.65;;;25.60;61.00;;;;;;5084030;28;20040;-54
2021/06/03 10:15:06;;;;;;;14.23;8.30;;;25.60;60.40;;;;;;5080860;28;20078;-54
2021/06/03 10:17:38;;;;;;;14.35;9.13;;;25.70;61.10;;;;;;5076823;28;20044;-56
2021/06/03 10:20:16;;;;;;;11.45;7.38;;;25.80;60.00;;;;;;5071453;28;20304;-54
2021/06/03 10:22:48;;;;;;;9.25;6.95;;;26.00;60.00;;;;;;5076149;28;20382;-54
2021/06/03 10:25:26;;;;;;;6.22;5.32;;;26.00;58.90;;;;;;5078684;28;20043;-57
2021/06/03 10:27:58;;;;;;;9.00;5.85;;;26.10;57.70;;;;;;5084322;28;20075;-56
2021/06/03 10:30:40;;;;;;;8.45;5.53;;;26.20;57.10;;;;;;5076639;28;20071;-56
2021/06/03 10:33:13;;;;;;;8.38;5.55;;;26.30;56.10;;;;;;5077535;28;20041;-57
2021/06/03 10:35:41;;;;;;;12.02;5.57;;;26.30;55.30;;;;;;5085910;28;20036;-55
2021/06/03 10:38:09;;;;;;;8.93;4.93;;;26.40;56.90;;;;;;5079992;28;20052;-54
2021/06/03 10:40:38;;;;;;;7.40;4.88;;;26.40;55.30;;;;;;5072069;28;20040;-55
2021/06/03 10:43:06;;;;;;;10.80;5.28;;;26.40;55.20;;;;;;5075436;28;20044;-53
2021/06/03 10:45:34;;;;;;;6.82;4.80;;;26.50;56.10;;;;;;5086096;28;20084;-54
2021/06/03 10:48:00;;;;;;;6.88;4.97;;;26.60;55.80;;;;;;5086001;28;20102;-54
2021/06/03 10:50:32;;;;;;;8.40;4.70;;;26.70;54.60;;;;;;5077006;28;20537;-56
2021/06/03 10:53:08;;;;;;;7.20;4.63;;;26.80;54.70;;;;;;5054705;28;20040;-54
2021/06/03 10:55:38;;;;;;;6.40;4.25;;;26.90;54.60;;;;;;5073507;28;20044;-56
2021/06/03 10:58:06;;;;;;;7.10;4.30;;;26.90;54.60;;;;;;5057036;28;20048;-57
2021/06/03 11:00:42;;;;;;;6.13;3.80;;;27.00;53.20;;;;;;5082778;28;20066;-57
2021/06/03 11:03:19;;;;;;;6.05;4.20;;;26.90;52.50;;;;;;5056547;28;20407;-57
2021/06/03 11:05:58;;;;;;;6.63;4.90;;;26.70;53.10;;;;;;5083643;28;20033;-57
2021/06/03 11:08:34;;;;;;;9.82;4.78;;;26.40;54.10;;;;;;5075377;28;20044;-58
2021/06/03 11:11:08;;;;;;;6.97;5.22;;;26.30;55.30;;;;;;5085375;28;20466;-57
2021/06/03 11:13:47;;;;;;;6.97;5.32;;;26.30;55.80;;;;;;5089408;28;20820;-57
2021/06/03 11:16:19;;;;;;;6.03;4.90;;;26.40;55.40;;;;;;5090567;28;20099;-57
2021/06/03 11:18:44;;;;;;;9.50;6.28;;;26.60;56.40;;;;;;5089663;28;20054;-57
2021/06/03 11:21:36;;;;;;;7.68;5.70;;;26.60;54.50;;;;;;5083718;28;20411;-58
2021/06/03 11:24:04;;;;;;;8.80;6.65;;;26.60;55.10;;;;;;5085515;28;20032;-57
2021/06/03 11:26:43;;;;;;;10.43;7.30;;;26.50;56.00;;;;;;5096030;28;20059;-57
2021/06/03 11:29:17;;;;;;;8.40;7.30;;;26.60;57.10;;;;;;5085641;28;20040;-54
2021/06/03 11:32:05;;;;;;;9.15;7.05;;;26.70;56.90;;;;;;5095699;28;20139;-54
2021/06/03 11:34:40;;;;;;;9.55;7.15;;;26.80;55.80;;;;;;5080281;28;20054;-53
2021/06/03 11:37:13;;;;;;;10.48;7.28;;;27.00;56.20;;;;;;5079964;28;20044;-53
2021/06/03 11:39:42;;;;;;;8.85;7.15;;;27.00;55.40;;;;;;5087421;28;20055;-52
2021/06/03 11:42:37;;;;;;;9.35;7.47;;;27.10;55.40;;;;;;5093180;28;20040;-54
2021/06/03 11:45:11;;;;;;;12.95;7.57;;;27.20;57.20;;;;;;5093147;28;20381;-53
2021/06/03 11:47:37;;;;;;;9.80;7.05;;;27.20;56.70;;;;;;5077336;28;20068;-53
2021/06/03 11:50:27;;;;;;;10.05;7.03;;;27.30;56.00;;;;;;5094338;28;20082;-54
2021/06/03 11:52:59;;;;;;;8.35;7.45;;;27.40;55.60;;;;;;5077672;28;20484;-54
2021/06/03 11:55:37;;;;;;;8.90;8.00;;;27.40;55.60;;;;;;5073615;28;20044;-56
2021/06/03 11:58:21;;;;;;;10.18;8.32;;;27.40;54.20;;;;;;5087424;28;20460;-57
2021/06/03 12:01:06;;;;;;;12.18;9.05;;;27.20;54.50;;;;;;5093430;28;20056;-57
2021/06/03 12:03:46;;;;;;;10.55;7.43;;;26.90;55.10;;;;;;5072455;28;20619;-55
2021/06/03 12:06:28;;;;;;;12.30;8.23;;;26.60;55.80;;;;;;5074537;28;20055;-56
2021/06/03 12:09:14;;;;;;;9.65;8.40;;;26.40;56.70;;;;;;5083204;28;20512;-56
2021/06/03 12:11:45;;;;;;;13.25;8.93;;;26.20;58.40;;;;;;5073220;28;20041;-56
2021/06/03 12:14:23;;;;;;;11.02;7.97;;;26.00;59.10;;;;;;5086031;28;20036;-57
2021/06/03 12:16:51;;;;;;;9.35;7.82;;;25.80;60.00;;;;;;5080829;28;20142;-56
2021/06/03 12:19:22;;;;;;;12.70;9.27;;;25.70;60.10;;;;;;5083815;28;20041;-56
2021/06/03 12:22:10;;;;;;;13.85;9.85;;;25.60;60.80;;;;;;5092584;28;20404;-56
2021/06/03 12:24:43;;;;;;;12.90;11.38;;;25.50;63.10;;;;;;5072579;28;20071;-54
2021/06/03 12:27:26;;;;;;;13.10;11.80;;;25.30;65.60;;;;;;5092823;28;20059;-53
2021/06/03 12:29:53;;;;;;;13.52;12.23;;;25.00;68.90;;;;;;5090091;28;20107;-56
2021/06/03 12:32:20;;;;;;;15.40;13.80;;;24.80;68.50;;;;;;5093776;28;20088;-55
2021/06/03 12:34:47;;;;;;;13.52;12.18;;;24.60;70.20;;;;;;5090748;28;20416;-54
2021/06/03 12:37:29;;;;;;;16.90;13.75;;;24.50;71.60;;;;;;5094051;28;20040;-52
2021/06/03 12:39:56;;;;;;;14.70;13.13;;;24.40;73.20;;;;;;5081984;28;20048;-53
2021/06/03 12:42:24;;;;;;;16.60;13.93;;;24.20;73.70;;;;;;5092142;28;20039;-53
2021/06/03 12:44:54;;;;;;;17.48;14.82;;;24.10;74.20;;;;;;5092735;28;20114;-53
2021/06/03 12:47:30;;;;;;;16.30;14.70;;;24.00;75.30;;;;;;5093561;28;20127;-56
2021/06/03 12:50:07;;;;;;;17.75;14.93;;;23.90;76.00;;;;;;5076713;28;20437;-56
2021/06/03 12:52:32;;;;;;;16.52;14.85;;;23.80;77.20;;;;;;5090615;28;20045;-55
2021/06/03 12:55:06;;;;;;;16.55;14.82;;;23.70;77.30;;;;;;5084094;28;20043;-56